createdAt,value
2023-01-10T04:35:55.037Z,8.57
2023-01-10T04:38:21.673Z,8.20
2023-01-10T04:40:57.404Z,7.40
2023-01-10T04:43:24.833Z,8.98
2023-01-10T04:45:51.180Z,7.32
2023-01-10T04:48:17.543Z,6.93
2023-01-10T04:50:48.532Z,7.45
2023-01-10T04:53:14.907Z,7.18
2023-01-10T04:55:41.182Z,7.15
2023-01-10T04:58:07.453Z,7.43
2023-01-10T05:00:33.780Z,7.78
2023-01-10T05:03:00.188Z,7.35
2023-01-10T05:05:26.772Z,8.25
2023-01-10T05:07:53.072Z,8.25
2023-01-10T05:10:19.446Z,7.60
2023-01-10T05:12:46.266Z,8.70
2023-01-10T05:15:13.228Z,6.55
2023-01-10T05:17:39.601Z,9.13
2023-01-10T05:20:06.154Z,8.23
2023-01-10T05:22:32.665Z,6.10
2023-01-10T05:24:58.956Z,6.53
2023-01-10T05:27:25.341Z,8.23
2023-01-10T05:29:51.710Z,7.93
2023-01-10T05:32:18.025Z,6.75
2023-01-10T05:34:44.381Z,6.30
2023-01-10T05:37:10.679Z,12.00
2023-01-10T05:39:37.012Z,6.78
2023-01-10T05:42:05.686Z,5.68
2023-01-10T05:44:32.050Z,7.00
2023-01-10T05:46:58.315Z,5.93
2023-01-10T05:49:24.619Z,7.68
2023-01-10T05:51:51.021Z,6.97
2023-01-10T05:54:17.380Z,7.18
2023-01-10T05:56:43.645Z,7.28
2023-01-10T05:59:27.066Z,6.85
2023-01-10T06:01:54.120Z,6.10
2023-01-10T06:04:20.484Z,7.05
2023-01-10T06:06:46.816Z,6.53
2023-01-10T06:09:13.138Z,6.53
2023-01-10T06:11:39.487Z,6.90
2023-01-10T06:14:07.254Z,8.15
2023-01-10T06:16:33.557Z,7.90
2023-01-10T06:18:59.917Z,6.85
2023-01-10T06:21:26.252Z,6.43
2023-01-10T06:23:52.631Z,6.75
2023-01-10T06:26:18.932Z,6.20
2023-01-10T06:28:45.279Z,5.68
2023-01-10T06:31:11.610Z,6.78
2023-01-10T06:33:38.948Z,7.00
2023-01-10T06:36:05.375Z,5.28
2023-01-10T06:38:31.659Z,6.70
2023-01-10T06:40:57.925Z,6.85
2023-01-10T06:43:25.939Z,5.05
2023-01-10T06:45:52.398Z,4.55
2023-01-10T06:48:18.752Z,4.90
2023-01-10T06:50:45.075Z,4.22
2023-01-10T06:53:11.412Z,4.43
2023-01-10T06:55:37.751Z,3.95
2023-01-10T06:58:04.817Z,5.22
2023-01-10T07:00:31.778Z,4.90
2023-01-10T07:02:58.540Z,3.88
2023-01-10T07:05:24.906Z,4.97
2023-01-10T07:07:51.290Z,6.57
2023-01-10T07:10:17.734Z,5.22
2023-01-10T07:12:44.107Z,4.65
2023-01-10T07:15:10.853Z,5.53
2023-01-10T07:17:37.386Z,5.35
2023-01-10T07:20:03.798Z,4.63
2023-01-10T07:22:30.056Z,4.68
2023-01-10T07:24:56.505Z,4.82
2023-01-10T07:27:22.884Z,4.10
2023-01-10T07:29:49.183Z,4.28
2023-01-10T07:32:15.503Z,4.03
2023-01-10T07:34:41.783Z,4.53
2023-01-10T07:37:08.071Z,4.82
2023-01-10T07:39:34.397Z,3.35
2023-01-10T07:42:01.283Z,3.45
2023-01-10T07:44:27.700Z,2.95
2023-01-10T07:46:54.013Z,5.43
2023-01-10T07:49:20.337Z,3.85
2023-01-10T07:51:46.627Z,3.67
2023-01-10T07:54:14.888Z,4.55
2023-01-10T07:56:41.309Z,4.25
2023-01-10T07:59:07.639Z,3.25
2023-01-10T08:01:35.157Z,2.85
2023-01-10T08:04:01.764Z,3.38
2023-01-10T08:06:31.540Z,4.65
2023-01-10T08:09:09.166Z,3.67
2023-01-10T10:34:24.479Z,4.32
2023-01-10T10:47:39.348Z,3.92
2023-01-10T16:40:02.243Z,3.63
2023-01-10T16:42:47.128Z,4.20
2023-01-10T16:45:13.528Z,3.55
2023-01-10T16:47:39.925Z,5.25
2023-01-10T16:50:06.574Z,2.75
2023-01-10T16:52:33.286Z,4.05
2023-01-10T16:54:59.591Z,3.30
2023-01-10T16:57:26.620Z,3.95
2023-01-10T16:59:52.982Z,3.72
2023-01-10T17:02:19.596Z,4.43
2023-01-10T17:04:46.259Z,3.22
2023-01-10T17:07:12.669Z,3.72
2023-01-10T17:09:39.151Z,3.40
2023-01-10T17:12:06.813Z,3.65
2023-01-10T17:14:37.147Z,3.85
2023-01-10T17:17:04.066Z,3.03
2023-01-10T17:19:30.559Z,4.82
2023-01-10T17:22:01.302Z,3.38
2023-01-10T17:24:29.687Z,3.40
2023-01-10T17:26:56.087Z,2.97
2023-01-10T17:29:23.579Z,4.85
2023-01-10T17:31:50.200Z,3.50
2023-01-10T17:34:16.584Z,3.28
2023-01-10T17:36:43.038Z,4.88
2023-01-10T17:39:09.628Z,3.72
2023-01-10T17:41:36.835Z,2.80
2023-01-10T17:44:12.859Z,5.10
2023-01-10T17:46:40.010Z,3.15
2023-01-10T17:49:06.587Z,4.20
2023-01-10T17:51:33.284Z,2.60
2023-01-10T17:53:59.850Z,5.13
2023-01-10T17:56:26.531Z,3.28
2023-01-10T17:58:53.652Z,3.45
2023-01-10T18:01:24.781Z,3.00
2023-01-10T18:03:54.677Z,2.85
2023-01-10T18:06:25.307Z,4.32
2023-01-10T18:08:52.734Z,3.17
2023-01-10T18:11:25.251Z,3.08
2023-01-10T18:13:53.118Z,3.47
2023-01-10T18:16:19.557Z,4.15
2023-01-10T18:18:45.981Z,3.17
2023-01-10T18:21:15.978Z,2.28
2023-01-10T18:23:44.799Z,4.95
2023-01-10T18:26:12.440Z,3.38
2023-01-10T18:28:54.208Z,3.20
2023-01-10T18:31:22.263Z,5.00
2023-01-10T18:34:15.054Z,3.97
2023-01-10T18:36:42.765Z,4.55
2023-01-10T18:39:09.139Z,4.40
2023-01-10T18:41:35.516Z,3.35
2023-01-10T18:44:05.896Z,4.45
2023-01-10T18:46:39.763Z,3.60
2023-01-10T18:49:06.100Z,4.15
2023-01-10T18:51:32.451Z,5.38
2023-01-10T18:54:01.301Z,4.55
2023-01-10T18:56:27.858Z,5.28
2023-01-10T18:59:01.109Z,4.70
2023-01-10T19:01:34.630Z,3.63
2023-01-10T19:04:01.301Z,5.35
2023-01-10T19:06:31.005Z,3.65
2023-01-10T19:09:00.449Z,4.38
2023-01-10T19:11:29.292Z,5.28
2023-01-10T19:13:55.639Z,2.97
2023-01-10T19:16:26.379Z,3.95
2023-01-10T19:18:56.943Z,5.65
2023-01-10T19:21:24.168Z,4.00
2023-01-10T19:23:52.673Z,3.55
